CheckWX is a tool to help pilots better visualize weather data.  It is not intended as a substitute for an official pre-flight weather briefing.

14:15:07 UTC

KMHS METAR
Mount Shasta Airport
Mount Shasta, California, USA
Current

19 mins ago

KMHS 221356Z AUTO 00000KT 10SM CLR 03/00 A3027 RMK AO2 SLP264 T00280000
Observed
Apr-22 @ 13:56 UTC
Visibility
10 SM
Flight Rules
VFR
Cloud Levels
  • Clear skies
Temperature
C / 37°F
Dewpoint
C / 32°F
Humidity
81%
Altimeter
30.27" Hg
Pressure
1025.02 hPa
Previous

1 hour ago

KMHS 221256Z AUTO 00000KT 10SM CLR 03/01 A3025 RMK AO2 SLP256 T00330006
Observed
Apr-22 @ 12:56 UTC
Visibility
10 SM
Flight Rules
VFR
Cloud Levels
  • Clear skies
Temperature
C / 37°F
Dewpoint
C / 34°F
Humidity
87%
Altimeter
30.25" Hg
Pressure
1024.42 hPa
Previous

2 hours ago

KMHS 221156Z AUTO 00000KT 10SM CLR 05/01 A3023 RMK AO2 SLP248 T00500011 10106 20050 56004
Observed
Apr-22 @ 11:56 UTC
Visibility
10 SM
Flight Rules
VFR
Cloud Levels
  • Clear skies
Temperature
C / 41°F
Dewpoint
C / 34°F
Humidity
76%
Altimeter
30.23" Hg
Pressure
1023.72 hPa